createdAt,value
2022-10-17T00:01:40.860Z,12.68
2022-10-17T00:04:44.086Z,12.74
2022-10-17T00:07:48.559Z,12.67
2022-10-17T00:10:59.590Z,12.66
2022-10-17T00:14:03.876Z,12.71
2022-10-17T00:17:07.173Z,12.64
2022-10-17T00:20:11.398Z,12.47
2022-10-17T00:23:15.894Z,12.10
2022-10-17T00:26:19.453Z,12.28
2022-10-17T00:29:22.571Z,12.61
2022-10-17T00:32:25.892Z,12.53
2022-10-17T00:35:29.110Z,12.39
2022-10-17T00:38:33.718Z,12.30
2022-10-17T00:41:36.831Z,12.29
2022-10-17T00:45:03.659Z,12.26
2022-10-17T00:48:10.672Z,12.30
2022-10-17T00:51:13.787Z,12.16
2022-10-17T00:54:22.107Z,12.00
2022-10-17T00:57:27.069Z,11.43
2022-10-17T01:00:30.575Z,11.66
2022-10-17T01:03:34.989Z,11.59
2022-10-17T01:06:38.098Z,11.63
2022-10-17T01:09:46.087Z,11.70
2022-10-17T01:13:01.455Z,11.56
2022-10-17T01:16:12.631Z,11.48
2022-10-17T01:19:57.552Z,11.36
2022-10-17T01:23:19.228Z,11.26
2022-10-17T01:26:34.807Z,11.27
2022-10-17T01:29:55.195Z,11.28
2022-10-17T01:33:07.610Z,11.16
2022-10-17T01:36:16.448Z,10.89
2022-10-17T01:39:32.530Z,10.95
2022-10-17T01:42:43.551Z,10.87
2022-10-17T01:45:51.149Z,10.88
2022-10-17T01:48:59.102Z,10.59
2022-10-17T01:52:05.034Z,10.83
2022-10-17T01:55:11.429Z,11.04
2022-10-17T01:58:20.249Z,10.48
2022-10-17T02:01:25.374Z,10.74
2022-10-17T02:04:30.586Z,10.88
2022-10-17T02:07:33.814Z,10.77
2022-10-17T02:10:43.305Z,10.55
2022-10-17T02:14:20.536Z,10.46
2022-10-17T02:17:35.768Z,10.60
2022-10-17T02:20:50.562Z,10.47
2022-10-17T02:23:57.375Z,10.75
2022-10-17T02:27:07.681Z,10.57
2022-10-17T02:30:15.603Z,10.91
2022-10-17T02:33:24.402Z,10.95
2022-10-17T02:36:33.900Z,10.75
2022-10-17T02:39:39.883Z,10.56
2022-10-17T02:42:45.907Z,10.91
2022-10-17T02:45:49.902Z,11.02
2022-10-17T02:48:56.029Z,10.60
2022-10-17T02:52:05.411Z,10.85
2022-10-17T02:55:14.598Z,10.68
2022-10-17T02:58:20.820Z,10.91
2022-10-17T03:01:25.218Z,10.58
2022-10-17T03:04:29.066Z,10.75
2022-10-17T03:07:33.612Z,10.72
2022-10-17T03:10:37.132Z,10.56
2022-10-17T03:13:40.542Z,10.81
2022-10-17T03:16:44.096Z,10.90
2022-10-17T03:19:47.247Z,11.11
2022-10-17T03:22:52.525Z,10.86
2022-10-17T03:25:55.671Z,10.41
2022-10-17T03:28:59.064Z,10.26
2022-10-17T03:34:28.495Z,10.55
2022-10-17T03:37:31.799Z,10.69
2022-10-17T03:40:35.894Z,10.56
2022-10-17T03:43:40.833Z,10.11
2022-10-17T03:46:44.863Z,10.41
2022-10-17T03:49:49.490Z,10.55
2022-10-17T03:52:52.925Z,10.50
2022-10-17T03:55:56.842Z,10.41
2022-10-17T03:59:00.277Z,10.41
2022-10-17T04:02:05.233Z,10.26
2022-10-17T04:05:10.657Z,10.25
2022-10-17T04:08:14.027Z,10.34
2022-10-17T04:11:39.199Z,10.50
2022-10-17T04:14:42.357Z,10.10
2022-10-17T04:17:48.429Z,10.26
2022-10-17T04:20:53.170Z,10.09
2022-10-17T04:23:57.792Z,9.89
2022-10-17T04:27:18.942Z,10.02
2022-10-17T04:30:24.282Z,10.15
2022-10-17T04:33:30.010Z,10.15
2022-10-17T04:36:34.766Z,10.45
2022-10-17T04:39:38.611Z,10.21
2022-10-17T04:42:41.807Z,10.06
2022-10-17T04:45:47.116Z,10.10
2022-10-17T04:48:50.983Z,10.30
2022-10-17T04:51:55.666Z,10.26
2022-10-17T04:55:13.940Z,10.20
2022-10-17T04:58:17.147Z,9.83
2022-10-17T05:01:22.319Z,9.69
2022-10-17T05:04:29.163Z,9.73
2022-10-17T05:07:33.784Z,9.65
2022-10-17T05:10:46.678Z,9.59
2022-10-17T05:13:55.426Z,9.70
2022-10-17T05:16:58.725Z,9.74
2022-10-17T05:20:02.380Z,9.69
2022-10-17T05:23:08.910Z,9.62
2022-10-17T05:26:16.828Z,9.66
2022-10-17T05:29:20.266Z,9.65
2022-10-17T05:32:29.121Z,9.64
2022-10-17T05:35:32.472Z,9.74
2022-10-17T05:38:37.308Z,10.04
2022-10-17T05:41:41.593Z,9.93
2022-10-17T05:44:46.960Z,10.12
2022-10-17T05:47:52.132Z,9.56
2022-10-17T05:51:00.453Z,9.44
2022-10-17T05:54:06.577Z,9.70
2022-10-17T05:57:11.676Z,9.76
2022-10-17T06:00:16.329Z,10.09
2022-10-17T06:03:21.042Z,10.06
2022-10-17T06:06:24.498Z,10.17
2022-10-17T06:09:29.523Z,10.20
2022-10-17T06:12:32.949Z,10.19
2022-10-17T06:15:36.584Z,10.29
2022-10-17T06:18:43.525Z,10.27
2022-10-17T06:21:47.656Z,10.15
2022-10-17T06:24:58.580Z,10.07
2022-10-17T06:28:02.291Z,10.17
2022-10-17T06:31:07.316Z,10.07
2022-10-17T06:34:10.468Z,10.42
2022-10-17T06:37:15.263Z,10.58
2022-10-17T06:40:21.284Z,10.65
2022-10-17T06:43:27.857Z,10.79
2022-10-17T06:46:51.168Z,10.85
2022-10-17T06:49:54.742Z,10.88
2022-10-17T06:53:21.776Z,10.93
2022-10-17T06:56:49.332Z,11.06
2022-10-17T06:59:58.614Z,11.08
2022-10-17T07:03:08.382Z,11.14
2022-10-17T07:06:11.817Z,11.26
2022-10-17T07:09:17.067Z,11.34
2022-10-17T07:12:22.403Z,11.42
2022-10-17T07:15:27.794Z,11.35
2022-10-17T07:18:30.958Z,11.78
2022-10-17T07:21:36.696Z,11.67
2022-10-17T07:24:43.175Z,11.93
2022-10-17T07:28:06.114Z,12.44
2022-10-17T07:31:13.888Z,13.11
2022-10-17T07:34:17.792Z,13.30
2022-10-17T07:37:21.496Z,13.68
2022-10-17T07:40:29.749Z,13.24
2022-10-17T07:43:36.152Z,13.84
2022-10-17T07:46:39.713Z,13.90
2022-10-17T07:49:44.167Z,13.63
2022-10-17T07:52:47.423Z,14.05
2022-10-17T07:55:51.371Z,14.29
2022-10-17T08:02:08.039Z,14.45
2022-10-17T08:05:11.198Z,14.38
2022-10-17T08:08:14.345Z,14.67
2022-10-17T08:11:17.495Z,15.05
2022-10-17T08:14:21.954Z,14.99
2022-10-17T08:17:25.158Z,15.02
2022-10-17T08:20:29.792Z,15.61
2022-10-17T08:23:33.256Z,16.37
2022-10-17T08:26:40.643Z,16.08
2022-10-17T08:29:48.776Z,15.81
2022-10-17T08:32:51.933Z,16.22
2022-10-17T08:35:55.007Z,16.31
2022-10-17T08:38:58.335Z,16.31
2022-10-17T08:42:20.654Z,16.30
2022-10-17T08:45:33.744Z,16.18
2022-10-17T08:48:44.079Z,16.22
2022-10-17T08:51:56.587Z,16.11
2022-10-17T08:54:59.831Z,16.54
2022-10-17T08:58:03.015Z,16.66
2022-10-17T09:01:18.610Z,16.61
2022-10-17T09:05:01.573Z,17.01
2022-10-17T09:08:15.572Z,17.14
2022-10-17T09:11:38.605Z,17.04
2022-10-17T09:15:17.388Z,17.40
2022-10-17T09:18:27.726Z,17.65
2022-10-17T09:21:41.156Z,17.49
2022-10-17T09:24:47.583Z,17.86
2022-10-17T09:27:54.933Z,17.85
2022-10-17T09:34:32.499Z,18.42
2022-10-17T09:37:35.722Z,18.07
2022-10-17T09:40:38.952Z,18.12
2022-10-17T09:43:42.150Z,18.61
2022-10-17T09:46:58.037Z,18.09
2022-10-17T09:50:02.653Z,18.50
2022-10-17T09:53:14.850Z,18.06
2022-10-17T09:56:20.316Z,18.86
2022-10-17T09:59:33.148Z,18.83
2022-10-17T10:02:36.627Z,18.75
2022-10-17T10:05:41.454Z,19.07
2022-10-17T10:08:55.413Z,19.14
2022-10-17T10:12:00.361Z,19.31
2022-10-17T10:15:23.902Z,19.12
2022-10-17T10:18:35.090Z,19.28
2022-10-17T10:21:57.049Z,19.48
2022-10-17T10:25:16.249Z,19.41
2022-10-17T10:28:19.813Z,19.72
2022-10-17T10:31:35.299Z,19.88
2022-10-17T10:34:42.327Z,19.98
2022-10-17T10:37:51.886Z,20.03
2022-10-17T10:40:57.413Z,19.93
2022-10-17T10:44:00.623Z,20.44
2022-10-17T10:47:09.125Z,20.38
2022-10-17T10:50:25.769Z,20.09
2022-10-17T10:53:45.337Z,20.40
2022-10-17T10:56:53.767Z,20.65
2022-10-17T11:00:03.690Z,20.49
2022-10-17T11:03:20.425Z,20.13
2022-10-17T11:06:28.827Z,20.21
2022-10-17T11:09:46.551Z,20.60
2022-10-17T11:12:52.574Z,20.47
2022-10-17T11:16:02.276Z,20.73
2022-10-17T11:19:13.970Z,21.26
2022-10-17T11:22:24.066Z,21.10
2022-10-17T11:25:35.556Z,21.16
2022-10-17T11:28:39.207Z,21.03
2022-10-17T11:31:46.378Z,21.20
2022-10-17T11:34:52.528Z,20.69
2022-10-17T11:38:07.158Z,21.06
2022-10-17T11:41:15.174Z,21.05
2022-10-17T11:44:25.837Z,21.37
2022-10-17T11:47:37.833Z,21.16
2022-10-17T11:54:15.212Z,21.48
2022-10-17T11:57:37.336Z,21.03
2022-10-17T12:00:54.105Z,21.35
2022-10-17T12:04:08.991Z,21.23
2022-10-17T12:07:19.444Z,21.14
2022-10-17T12:10:35.181Z,21.54
2022-10-17T12:13:51.927Z,21.07
2022-10-17T12:16:55.160Z,21.23
2022-10-17T12:20:39.759Z,21.54
2022-10-17T12:23:53.115Z,21.44
2022-10-17T12:26:57.212Z,21.42
2022-10-17T12:30:05.382Z,21.22
2022-10-17T12:33:22.290Z,21.33
2022-10-17T12:36:49.987Z,21.43
2022-10-17T12:39:53.103Z,21.38
2022-10-17T12:42:56.271Z,21.30
2022-10-17T12:46:02.140Z,21.42
2022-10-17T12:49:20.608Z,21.81
2022-10-17T12:52:46.246Z,21.87
2022-10-17T12:55:51.840Z,21.74
2022-10-17T12:58:55.025Z,21.95
2022-10-17T13:02:02.932Z,22.12
2022-10-17T13:05:12.283Z,21.64
2022-10-17T13:08:19.807Z,21.89
2022-10-17T13:11:26.301Z,21.82
2022-10-17T13:14:30.699Z,21.65
2022-10-17T13:17:37.990Z,21.67
2022-10-17T13:20:43.774Z,22.12
2022-10-17T13:23:49.265Z,21.71
2022-10-17T13:26:52.348Z,21.53
2022-10-17T13:29:57.349Z,21.52
2022-10-17T13:33:02.996Z,21.58
2022-10-17T13:36:16.127Z,21.93
2022-10-17T13:39:52.394Z,21.78
2022-10-17T13:42:56.927Z,21.63
2022-10-17T13:46:25.444Z,21.51
2022-10-17T13:49:44.428Z,21.31
2022-10-17T13:53:06.182Z,21.69
2022-10-17T13:56:28.328Z,21.75
2022-10-17T13:59:41.362Z,21.60
2022-10-17T14:02:46.889Z,21.72
2022-10-17T14:06:12.152Z,21.73
2022-10-17T14:09:23.400Z,21.76
2022-10-17T14:12:29.572Z,21.73
2022-10-17T14:15:37.146Z,21.58
2022-10-17T14:18:44.718Z,21.65
2022-10-17T14:21:53.871Z,21.75
2022-10-17T14:25:02.182Z,21.66
2022-10-17T14:28:20.915Z,21.65
2022-10-17T14:31:37.891Z,21.37
2022-10-17T14:34:46.101Z,21.32
2022-10-17T14:37:53.059Z,21.15
2022-10-17T14:41:09.746Z,21.31
2022-10-17T14:44:26.695Z,21.59
2022-10-17T14:47:42.675Z,21.24
2022-10-17T14:51:12.948Z,21.46
2022-10-17T14:54:24.760Z,20.77
2022-10-17T14:57:43.815Z,20.82
2022-10-17T15:00:46.928Z,20.72
2022-10-17T15:03:50.108Z,20.59
2022-10-17T15:06:55.461Z,20.65
2022-10-17T15:10:00.178Z,20.50
2022-10-17T15:13:26.723Z,20.64
2022-10-17T15:16:32.609Z,20.24
2022-10-17T15:19:35.687Z,20.32
2022-10-17T15:22:38.775Z,20.67
2022-10-17T15:25:43.373Z,20.18
2022-10-17T15:28:47.586Z,20.27
2022-10-17T15:34:28.885Z,20.04
2022-10-17T15:37:35.076Z,20.24
2022-10-17T15:40:38.194Z,19.91
2022-10-17T15:43:41.309Z,19.95
2022-10-17T15:46:45.936Z,19.82
2022-10-17T15:49:50.422Z,19.85
2022-10-17T15:52:53.684Z,19.81
2022-10-17T15:55:56.881Z,19.26
2022-10-17T15:59:00.093Z,18.90
2022-10-17T16:02:03.164Z,18.93
2022-10-17T16:05:14.834Z,18.71
2022-10-17T16:08:17.967Z,18.33
2022-10-17T16:11:28.853Z,18.50
2022-10-17T16:14:32.423Z,18.37
2022-10-17T16:17:35.593Z,18.10
2022-10-17T16:20:40.490Z,18.04
2022-10-17T16:23:44.195Z,17.78
2022-10-17T16:26:47.558Z,17.70
2022-10-17T16:29:50.705Z,17.92
2022-10-17T16:32:54.722Z,17.52
2022-10-17T16:35:59.196Z,17.29
2022-10-17T16:39:02.474Z,17.34
2022-10-17T16:42:05.694Z,17.33
2022-10-17T16:45:09.699Z,17.14
2022-10-17T16:48:13.255Z,17.08
2022-10-17T16:51:19.160Z,16.89
2022-10-17T16:54:22.322Z,16.92
2022-10-17T16:57:25.560Z,16.97
2022-10-17T17:00:28.832Z,16.79
2022-10-17T17:03:32.032Z,16.65
2022-10-17T17:06:37.977Z,16.59
2022-10-17T17:09:41.172Z,16.73
2022-10-17T17:12:44.333Z,16.99
2022-10-17T17:15:47.766Z,16.63
2022-10-17T17:18:55.222Z,16.70
2022-10-17T17:21:59.838Z,16.50
2022-10-17T17:25:03.016Z,16.54
2022-10-17T17:28:06.941Z,16.26
2022-10-17T17:31:12.225Z,16.30
2022-10-17T17:34:18.070Z,16.06
2022-10-17T17:37:23.446Z,16.01
2022-10-17T17:40:26.767Z,16.02
2022-10-17T17:43:31.118Z,16.05
2022-10-17T17:46:34.884Z,15.83
2022-10-17T17:49:38.122Z,15.87
2022-10-17T17:52:45.513Z,15.79
2022-10-17T17:55:48.815Z,15.88
2022-10-17T17:58:55.381Z,15.47
2022-10-17T18:01:58.872Z,15.55
2022-10-17T18:05:02.123Z,15.42
2022-10-17T18:08:07.377Z,15.38
2022-10-17T18:11:10.714Z,15.25
2022-10-17T18:14:14.198Z,15.14
2022-10-17T18:17:17.346Z,14.95
2022-10-17T18:20:20.485Z,14.96
2022-10-17T18:23:25.016Z,14.79
2022-10-17T18:26:28.495Z,14.91
2022-10-17T18:29:32.746Z,15.00
2022-10-17T18:32:36.347Z,14.76
2022-10-17T18:35:39.450Z,14.77
2022-10-17T18:38:44.499Z,15.12
2022-10-17T18:41:48.225Z,14.75
2022-10-17T18:44:51.410Z,14.83
2022-10-17T18:47:54.698Z,14.68
2022-10-17T18:50:57.820Z,14.95
2022-10-17T18:54:03.521Z,14.79
2022-10-17T18:57:07.158Z,14.83
2022-10-17T19:00:11.751Z,14.85
2022-10-17T19:03:15.216Z,14.67
2022-10-17T19:06:20.413Z,14.41
2022-10-17T19:09:25.075Z,14.39
2022-10-17T19:12:28.847Z,14.54
2022-10-17T19:15:32.358Z,14.40
2022-10-17T19:18:36.385Z,14.22
2022-10-17T19:21:39.794Z,14.12
2022-10-17T19:24:44.391Z,14.20
2022-10-17T19:27:47.655Z,14.12
2022-10-17T19:30:51.214Z,13.76
2022-10-17T19:33:55.667Z,13.81
2022-10-17T19:36:58.983Z,13.92
2022-10-17T19:40:04.010Z,13.69
2022-10-17T19:43:07.190Z,13.68
2022-10-17T19:46:12.806Z,13.74
2022-10-17T19:49:17.703Z,13.64
2022-10-17T19:52:20.848Z,13.73
2022-10-17T19:55:25.424Z,13.72
2022-10-17T19:58:29.495Z,13.72
2022-10-17T20:01:35.016Z,13.66
2022-10-17T20:04:49.502Z,13.26
2022-10-17T20:08:01.314Z,13.28
2022-10-17T20:11:08.007Z,13.08
2022-10-17T20:14:11.172Z,13.31
2022-10-17T20:17:14.334Z,13.00
2022-10-17T20:20:17.781Z,13.11
2022-10-17T20:23:21.004Z,13.02
2022-10-17T20:26:37.783Z,13.57
2022-10-17T20:29:42.084Z,13.24
2022-10-17T20:32:45.229Z,13.27
2022-10-17T20:35:48.429Z,13.21
2022-10-17T20:38:54.309Z,13.21
2022-10-17T20:41:59.396Z,13.15
2022-10-17T20:45:03.014Z,13.04
2022-10-17T20:48:07.302Z,12.98
2022-10-17T20:51:11.664Z,12.97
2022-10-17T20:54:15.003Z,13.36
2022-10-17T20:57:19.687Z,12.85
2022-10-17T21:00:23.426Z,12.79
2022-10-17T21:03:26.678Z,12.85
2022-10-17T21:06:29.775Z,12.81
2022-10-17T21:09:33.116Z,12.67
2022-10-17T21:12:53.381Z,12.60
2022-10-17T21:16:04.608Z,12.90
2022-10-17T21:19:07.911Z,12.42
2022-10-17T21:22:11.126Z,12.50
2022-10-17T21:25:14.539Z,12.37
2022-10-17T21:28:19.024Z,12.54
2022-10-17T21:34:28.769Z,12.36
2022-10-17T21:37:32.096Z,13.00
2022-10-17T21:40:35.986Z,12.30
2022-10-17T21:43:39.830Z,12.34
2022-10-17T21:46:43.422Z,12.27
2022-10-17T21:49:48.132Z,12.17
2022-10-17T21:52:51.317Z,12.07
2022-10-17T21:55:54.752Z,12.31
2022-10-17T21:58:59.532Z,12.14
2022-10-17T22:02:02.996Z,12.04
2022-10-17T22:05:08.227Z,12.04
2022-10-17T22:08:11.384Z,12.18
2022-10-17T22:11:17.837Z,12.01
2022-10-17T22:14:22.948Z,12.07
2022-10-17T22:17:26.161Z,11.92
2022-10-17T22:20:31.050Z,12.00
2022-10-17T22:23:35.872Z,11.94
2022-10-17T22:26:39.328Z,11.81
2022-10-17T22:29:42.593Z,11.88
2022-10-17T22:32:45.989Z,11.77
2022-10-17T22:35:50.915Z,11.58
2022-10-17T22:38:54.174Z,12.49
2022-10-17T22:41:57.674Z,11.57
2022-10-17T22:45:01.227Z,11.45
2022-10-17T22:48:05.817Z,11.56
2022-10-17T22:51:10.429Z,11.35
2022-10-17T22:54:13.900Z,11.59
2022-10-17T22:57:17.096Z,11.50
2022-10-17T23:00:20.670Z,11.49
2022-10-17T23:03:25.228Z,11.45
2022-10-17T23:06:30.112Z,11.33
2022-10-17T23:09:33.600Z,11.44
2022-10-17T23:12:36.879Z,11.40
2022-10-17T23:15:40.271Z,11.53
2022-10-17T23:18:44.335Z,11.52
2022-10-17T23:21:48.895Z,11.46
2022-10-17T23:24:52.270Z,11.36
2022-10-17T23:27:56.331Z,11.46
2022-10-17T23:30:59.422Z,11.42
2022-10-17T23:34:02.640Z,11.36
2022-10-17T23:37:07.386Z,11.41
2022-10-17T23:40:12.150Z,11.33
2022-10-17T23:43:15.499Z,11.31
2022-10-17T23:46:19.282Z,11.36
2022-10-17T23:49:22.384Z,11.44
2022-10-17T23:52:27.105Z,11.42
2022-10-17T23:55:30.295Z,11.33
2022-10-17T23:58:33.771Z,11.35
